Time;durP1;ratioP1;P1;durP2;ratioP2;P2;SDS_P1;SDS_P2;PMS_P1;PMS_P2;Temp;Humidity;BMP_temperature;BMP_pressure;BME280_temperature;BME280_humidity;BME280_pressure;Samples;Min_cycle;Max_cycle;Signal;HPM_P1;HPM_P2
2023/12/22 00:00:55;;;;;;;4.23;1.37;;;5.30;99.90;;;;;;2024851;29;20264;-86
2023/12/22 00:02:37;;;;;;;2.30;1.20;;;5.30;99.90;;;;;;2066450;28;20584;-70
2023/12/22 00:03:38;;;;;;;2.93;1.20;;;5.20;99.90;;;;;;2048830;28;20246;-71
2023/12/22 00:04:39;;;;;;;1.97;1.10;;;5.20;99.90;;;;;;2050717;28;20264;-69
2023/12/22 00:05:40;;;;;;;2.50;1.40;;;5.30;99.90;;;;;;2057998;28;20233;-67
2023/12/22 00:06:41;;;;;;;4.72;1.05;;;5.20;99.90;;;;;;2044534;28;20724;-69
2023/12/22 00:07:42;;;;;;;6.05;1.65;;;5.30;99.90;;;;;;2043129;28;20342;-69
2023/12/22 00:08:42;;;;;;;3.17;1.20;;;5.20;99.90;;;;;;2038873;28;20227;-70
2023/12/22 00:09:43;;;;;;;2.47;1.27;;;5.30;99.90;;;;;;2050085;28;20693;-67
2023/12/22 00:10:44;;;;;;;4.87;2.00;;;5.30;99.90;;;;;;2067640;28;20227;-70
2023/12/22 00:11:44;;;;;;;4.43;1.43;;;5.30;99.90;;;;;;2043420;28;20296;-72
2023/12/22 00:12:45;;;;;;;5.70;1.10;;;5.20;99.90;;;;;;2043436;28;20247;-69
2023/12/22 00:13:46;;;;;;;3.37;1.10;;;5.20;99.90;;;;;;2052466;28;20304;-68
2023/12/22 00:14:47;;;;;;;3.37;1.10;;;5.10;99.90;;;;;;2067894;28;20254;-68
2023/12/22 00:15:48;;;;;;;2.87;1.23;;;5.10;99.90;;;;;;2051820;28;20584;-68
2023/12/22 00:16:48;;;;;;;3.60;1.63;;;5.10;99.90;;;;;;2052876;28;20239;-69
2023/12/22 00:17:50;;;;;;;1.87;1.10;;;5.10;99.90;;;;;;2079115;28;20688;-68
2023/12/22 00:18:52;;;;;;;2.58;1.75;;;5.10;99.90;;;;;;2065620;28;20238;-69
2023/12/22 00:19:52;;;;;;;2.25;1.20;;;5.10;99.90;;;;;;2051009;28;20246;-68
2023/12/22 00:20:54;;;;;;;3.27;1.30;;;5.10;99.90;;;;;;2051386;28;20341;-69
2023/12/22 00:21:54;;;;;;;3.97;1.67;;;5.10;99.90;;;;;;2049899;28;20267;-68
2023/12/22 00:22:55;;;;;;;2.27;1.40;;;5.10;99.90;;;;;;2041163;28;20257;-68
2023/12/22 00:23:56;;;;;;;5.55;1.40;;;5.10;99.90;;;;;;2042347;28;20234;-68
2023/12/22 00:24:57;;;;;;;7.13;1.43;;;5.10;99.90;;;;;;2051995;28;20227;-68
2023/12/22 00:25:58;;;;;;;3.60;1.50;;;5.10;99.90;;;;;;2052300;28;20306;-68
2023/12/22 00:26:58;;;;;;;4.90;1.67;;;5.10;99.90;;;;;;2043710;28;20310;-68
2023/12/22 00:27:59;;;;;;;3.40;1.70;;;5.10;99.90;;;;;;2043791;28;20327;-68
2023/12/22 00:29:00;;;;;;;2.77;1.13;;;5.10;99.90;;;;;;2056165;28;20245;-68
2023/12/22 00:30:00;;;;;;;3.90;1.63;;;5.10;99.90;;;;;;2062557;28;20223;-68
2023/12/22 00:31:01;;;;;;;4.67;1.47;;;5.10;99.90;;;;;;2079245;28;20217;-68
2023/12/22 00:32:02;;;;;;;4.53;1.47;;;5.10;99.90;;;;;;2086349;28;20243;-68
2023/12/22 00:33:03;;;;;;;4.43;1.50;;;5.10;99.90;;;;;;2050181;28;20223;-68
2023/12/22 00:34:04;;;;;;;2.30;1.40;;;5.10;99.90;;;;;;2050414;28;20199;-67
2023/12/22 00:35:07;;;;;;;5.80;1.50;;;5.10;99.90;;;;;;2052010;28;20188;-68
2023/12/22 00:36:08;;;;;;;7.22;1.75;;;5.00;99.90;;;;;;2051330;28;20179;-69
2023/12/22 00:37:09;;;;;;;6.35;1.83;;;5.00;99.90;;;;;;2048500;28;20720;-68
2023/12/22 00:38:11;;;;;;;3.97;1.93;;;5.00;99.90;;;;;;2058687;28;20188;-68
2023/12/22 00:39:11;;;;;;;3.03;1.20;;;5.00;99.90;;;;;;2070918;28;20181;-68
2023/12/22 00:40:12;;;;;;;6.70;1.53;;;5.00;99.90;;;;;;2070951;28;20207;-68
2023/12/22 00:41:13;;;;;;;1.33;1.23;;;5.00;99.90;;;;;;2052291;28;20180;-68
2023/12/22 00:42:14;;;;;;;3.40;1.53;;;5.00;99.90;;;;;;2051630;28;20238;-68
2023/12/22 00:43:14;;;;;;;2.83;1.00;;;5.00;99.90;;;;;;2052484;28;20179;-68
2023/12/22 00:44:15;;;;;;;2.63;1.10;;;5.00;99.90;;;;;;2064646;28;20180;-68
2023/12/22 00:45:16;;;;;;;2.83;1.40;;;5.00;99.90;;;;;;2069243;28;20259;-68
2023/12/22 00:46:17;;;;;;;2.30;1.37;;;5.00;99.90;;;;;;2044694;28;20713;-68
2023/12/22 00:47:18;;;;;;;2.20;1.00;;;5.00;99.90;;;;;;2051942;28;20198;-68
2023/12/22 00:48:18;;;;;;;1.90;1.00;;;4.90;99.90;;;;;;2056796;28;20264;-68
2023/12/22 00:49:21;;;;;;;1.03;0.90;;;4.90;99.90;;;;;;2066732;28;20263;-68
2023/12/22 00:50:22;;;;;;;2.28;1.00;;;4.80;99.90;;;;;;2051823;28;20184;-68
2023/12/22 00:51:23;;;;;;;2.78;1.20;;;4.90;99.90;;;;;;2052122;28;20238;-67
2023/12/22 00:52:24;;;;;;;4.30;1.13;;;4.90;99.90;;;;;;2052474;28;20231;-68
2023/12/22 00:53:25;;;;;;;4.43;1.30;;;4.90;99.90;;;;;;2049736;28;20232;-68
2023/12/22 00:54:26;;;;;;;2.85;1.00;;;4.90;99.90;;;;;;2067207;28;20255;-68
2023/12/22 00:55:26;;;;;;;4.13;1.30;;;4.90;99.90;;;;;;2051610;28;20259;-68
2023/12/22 00:56:27;;;;;;;1.67;1.20;;;4.90;99.90;;;;;;2067880;28;20307;-69
2023/12/22 00:57:28;;;;;;;5.40;1.77;;;5.00;99.90;;;;;;2063376;28;20655;-68
2023/12/22 00:58:30;;;;;;;2.93;1.10;;;5.00;99.90;;;;;;2052463;28;20328;-68
2023/12/22 00:59:31;;;;;;;4.03;1.33;;;5.00;99.90;;;;;;2048220;28;20234;-68
2023/12/22 01:00:32;;;;;;;6.40;2.00;;;5.00;99.90;;;;;;2066535;28;20262;-68
2023/12/22 01:01:32;;;;;;;3.50;1.23;;;4.90;99.90;;;;;;2052065;28;20236;-68
2023/12/22 01:02:33;;;;;;;2.07;1.20;;;4.90;99.90;;;;;;2040235;28;20248;-68
2023/12/22 01:03:34;;;;;;;1.33;0.90;;;4.90;99.90;;;;;;2051887;28;20594;-68
2023/12/22 01:04:34;;;;;;;1.97;1.07;;;4.90;99.90;;;;;;2053905;28;20231;-68
2023/12/22 01:05:35;;;;;;;2.67;1.20;;;4.90;99.90;;;;;;2038454;28;20314;-67
2023/12/22 01:06:38;;;;;;;2.53;1.43;;;4.80;99.90;;;;;;2058667;28;20742;-67
2023/12/22 01:07:39;;;;;;;3.28;1.10;;;4.80;99.90;;;;;;2074821;28;20267;-68
2023/12/22 01:08:40;;;;;;;3.43;1.10;;;4.90;99.90;;;;;;2056918;28;20229;-68
2023/12/22 01:09:42;;;;;;;3.33;1.33;;;4.80;99.90;;;;;;2050010;28;20239;-66
2023/12/22 01:10:42;;;;;;;3.20;1.27;;;4.80;99.90;;;;;;2050645;28;20624;-68
2023/12/22 01:11:43;;;;;;;3.47;1.27;;;4.80;99.90;;;;;;2051747;28;20238;-68
2023/12/22 01:12:44;;;;;;;6.73;1.10;;;4.80;99.90;;;;;;2054178;28;20242;-68
2023/12/22 01:13:44;;;;;;;3.50;1.53;;;4.70;99.90;;;;;;2045199;28;20619;-68
2023/12/22 01:14:45;;;;;;;3.53;1.00;;;4.80;99.90;;;;;;2060732;28;20302;-68
2023/12/22 01:15:46;;;;;;;4.23;1.03;;;4.80;99.90;;;;;;2042555;28;20238;-67
2023/12/22 01:16:47;;;;;;;2.42;1.10;;;4.80;99.90;;;;;;2046124;28;20242;-68
2023/12/22 01:17:48;;;;;;;2.57;1.20;;;4.80;99.90;;;;;;2044556;28;20289;-68
2023/12/22 01:18:49;;;;;;;2.50;1.20;;;4.80;99.90;;;;;;2064235;28;20745;-68
2023/12/22 01:19:50;;;;;;;2.93;1.10;;;4.80;99.90;;;;;;2043501;28;20248;-67
2023/12/22 01:20:51;;;;;;;4.68;1.00;;;4.80;99.90;;;;;;2041795;28;20228;-68
2023/12/22 01:21:52;;;;;;;4.63;1.50;;;4.80;99.90;;;;;;2051564;28;20235;-68
2023/12/22 01:22:53;;;;;;;4.50;1.48;;;4.80;99.90;;;;;;2048141;28;20275;-68
2023/12/22 01:23:54;;;;;;;3.90;1.27;;;4.80;99.90;;;;;;2041375;28;20614;-68
2023/12/22 01:24:55;;;;;;;2.92;1.33;;;4.80;99.90;;;;;;2045366;28;20231;-68
2023/12/22 01:25:56;;;;;;;6.30;1.40;;;4.80;99.90;;;;;;2045145;28;20227;-68
2023/12/22 01:26:57;;;;;;;3.00;1.33;;;4.80;99.90;;;;;;2045681;28;20229;-68
2023/12/22 01:27:57;;;;;;;3.17;1.43;;;4.80;99.90;;;;;;2058912;28;20728;-67
2023/12/22 01:28:59;;;;;;;4.80;1.27;;;4.80;99.90;;;;;;2044917;28;20274;-67
2023/12/22 01:29:59;;;;;;;4.03;1.08;;;4.80;99.90;;;;;;2045534;28;20386;-68
2023/12/22 01:31:00;;;;;;;2.60;1.37;;;4.80;99.90;;;;;;2079420;28;20736;-68
2023/12/22 01:32:01;;;;;;;5.47;1.38;;;4.70;99.90;;;;;;2044403;28;20240;-68
2023/12/22 01:33:02;;;;;;;1.77;0.90;;;4.70;99.90;;;;;;2042845;28;20229;-68
2023/12/22 01:34:03;;;;;;;1.27;0.80;;;4.70;99.90;;;;;;2061498;28;20221;-68
2023/12/22 01:35:09;;;;;;;1.87;1.00;;;4.70;99.90;;;;;;2053540;28;20181;-68
2023/12/22 01:36:09;;;;;;;3.08;1.20;;;4.70;99.90;;;;;;2049312;28;20242;-67
2023/12/22 01:37:10;;;;;;;0.87;0.70;;;4.70;99.90;;;;;;2046537;28;20715;-67
2023/12/22 01:38:11;;;;;;;5.70;1.10;;;4.70;99.90;;;;;;2046196;28;20208;-68
2023/12/22 01:39:11;;;;;;;3.50;0.90;;;4.70;99.90;;;;;;2052378;28;20181;-68
2023/12/22 01:40:12;;;;;;;3.87;1.30;;;4.60;99.90;;;;;;2046887;28;20193;-67
2023/12/22 01:41:13;;;;;;;3.40;1.40;;;4.60;99.90;;;;;;2043483;28;20281;-68
2023/12/22 01:42:14;;;;;;;2.13;0.80;;;4.60;99.90;;;;;;2043629;28;20537;-68
2023/12/22 01:43:16;;;;;;;2.57;1.00;;;4.60;99.90;;;;;;2045960;28;20180;-68
2023/12/22 01:44:17;;;;;;;2.33;0.98;;;4.60;99.90;;;;;;2046318;28;20212;-68
2023/12/22 01:45:18;;;;;;;1.90;0.90;;;4.60;99.90;;;;;;2046653;28;20176;-67
2023/12/22 01:46:18;;;;;;;2.10;1.30;;;4.60;99.90;;;;;;2046455;28;20184;-68
2023/12/22 01:47:19;;;;;;;1.43;1.00;;;4.60;99.90;;;;;;2044191;28;20232;-68
2023/12/22 01:48:22;;;;;;;5.23;1.30;;;4.60;99.90;;;;;;2046058;28;20227;-68
2023/12/22 01:49:22;;;;;;;4.32;1.20;;;4.70;99.90;;;;;;2045173;28;20238;-68
2023/12/22 01:50:24;;;;;;;4.93;1.67;;;4.60;99.90;;;;;;2036537;29;20968;-68
2023/12/22 01:51:25;;;;;;;4.38;1.52;;;4.70;99.90;;;;;;2035427;28;20240;-68
2023/12/22 01:52:27;;;;;;;2.15;1.52;;;4.70;99.90;;;;;;2049668;28;20325;-69
2023/12/22 01:53:29;;;;;;;3.65;1.85;;;4.70;99.90;;;;;;2061033;28;20234;-68
2023/12/22 01:54:30;;;;;;;4.78;1.80;;;4.70;99.90;;;;;;2045085;28;20303;-68
2023/12/22 01:55:30;;;;;;;3.75;1.50;;;4.70;99.90;;;;;;2046365;28;20651;-68
2023/12/22 01:56:32;;;;;;;4.43;2.10;;;4.70;99.90;;;;;;2061053;28;20235;-69
2023/12/22 01:57:35;;;;;;;2.25;1.38;;;4.70;99.90;;;;;;2046269;28;20732;-69
2023/12/22 01:58:37;;;;;;;2.50;1.33;;;4.70;99.90;;;;;;2060411;28;20220;-68
2023/12/22 01:59:38;;;;;;;8.98;1.52;;;4.70;99.90;;;;;;2045747;28;20248;-69
2023/12/22 02:00:38;;;;;;;1.90;1.20;;;4.60;99.90;;;;;;2061927;28;20221;-68
2023/12/22 02:01:40;;;;;;;4.27;1.10;;;4.60;99.90;;;;;;2061190;28;20339;-69
2023/12/22 02:02:44;;;;;;;4.10;1.13;;;4.60;99.90;;;;;;2045935;28;20223;-68
2023/12/22 02:03:46;;;;;;;1.90;0.90;;;4.60;99.90;;;;;;2045034;28;20605;-68
2023/12/22 02:04:49;;;;;;;2.22;1.00;;;4.60;99.90;;;;;;2048661;28;20237;-69
2023/12/22 02:05:50;;;;;;;4.30;1.45;;;4.70;99.90;;;;;;2057662;28;20729;-68
2023/12/22 02:06:51;;;;;;;5.53;1.42;;;4.60;99.90;;;;;;2059273;28;20366;-68
2023/12/22 02:07:52;;;;;;;2.45;1.10;;;4.60;99.90;;;;;;2053470;28;20251;-69
2023/12/22 02:08:54;;;;;;;4.07;1.47;;;4.60;99.90;;;;;;2037044;28;20232;-69
2023/12/22 02:09:54;;;;;;;3.40;1.52;;;4.60;99.90;;;;;;2042238;28;20228;-69
2023/12/22 02:10:55;;;;;;;2.30;1.00;;;4.60;99.90;;;;;;2045366;28;20634;-68
2023/12/22 02:11:56;;;;;;;1.83;1.10;;;4.60;99.90;;;;;;2059256;28;20235;-68
2023/12/22 02:12:57;;;;;;;2.47;1.33;;;4.60;99.90;;;;;;2044126;28;20225;-68
2023/12/22 02:13:58;;;;;;;3.73;1.53;;;4.60;99.90;;;;;;2035929;28;20224;-68
2023/12/22 02:14:58;;;;;;;1.73;1.20;;;4.60;99.90;;;;;;2053891;28;20224;-69
2023/12/22 02:16:13;;;;;;;2.33;1.00;;;4.60;99.90;;;;;;2049142;28;20228;-69
2023/12/22 02:17:53;;;;;;;3.38;1.13;;;4.60;99.90;;;;;;2041146;28;20251;-69
2023/12/22 02:18:56;;;;;;;3.70;1.20;;;4.60;99.90;;;;;;2053488;28;20226;-68
2023/12/22 02:19:58;;;;;;;4.63;1.25;;;4.50;99.90;;;;;;2043762;28;20231;-68
2023/12/22 02:20:59;;;;;;;6.60;1.60;;;4.50;99.90;;;;;;2037116;28;20229;-68
2023/12/22 02:22:07;;;;;;;3.63;1.27;;;4.50;99.90;;;;;;2045843;28;20239;-68
2023/12/22 02:23:08;;;;;;;3.03;1.17;;;4.50;99.90;;;;;;2054806;28;20216;-69
2023/12/22 02:24:08;;;;;;;3.33;1.63;;;4.40;99.90;;;;;;2041108;28;20189;-68
2023/12/22 02:25:09;;;;;;;2.63;1.27;;;4.40;99.90;;;;;;2066853;28;20177;-68
2023/12/22 02:26:29;;;;;;;4.47;1.80;;;4.40;99.90;;;;;;2053264;28;20681;-68
2023/12/22 02:27:38;;;;;;;4.32;1.40;;;4.40;99.90;;;;;;2045243;28;20235;-68
2023/12/22 02:28:40;;;;;;;3.53;1.52;;;4.50;99.90;;;;;;2036046;28;20311;-68
2023/12/22 02:29:50;;;;;;;4.50;1.38;;;4.40;99.90;;;;;;2034074;28;20240;-68
2023/12/22 02:31:01;;;;;;;2.53;1.48;;;4.50;99.90;;;;;;2042702;29;20220;-68
2023/12/22 02:32:19;;;;;;;3.53;1.42;;;4.40;99.90;;;;;;2045990;28;20718;-68
2023/12/22 02:33:23;;;;;;;3.20;1.40;;;4.40;99.90;;;;;;2041344;28;20223;-68
2023/12/22 02:34:25;;;;;;;3.90;1.13;;;4.40;99.90;;;;;;2029075;28;20803;-68
2023/12/22 02:35:28;;;;;;;5.38;1.30;;;4.40;99.90;;;;;;2037903;28;20240;-68
2023/12/22 02:36:30;;;;;;;1.75;1.15;;;4.50;99.90;;;;;;2042029;28;20234;-68
2023/12/22 02:37:34;;;;;;;4.50;1.83;;;4.40;99.90;;;;;;2060216;28;20721;-68
2023/12/22 02:38:36;;;;;;;4.15;1.40;;;4.50;99.90;;;;;;2059914;28;20642;-68
2023/12/22 02:39:36;;;;;;;6.82;1.92;;;4.50;99.90;;;;;;2084714;28;20232;-68
2023/12/22 02:40:38;;;;;;;5.43;1.63;;;4.40;99.90;;;;;;2052429;28;20254;-67
2023/12/22 02:41:39;;;;;;;2.67;1.00;;;4.40;99.90;;;;;;2041831;28;20716;-68
2023/12/22 02:42:41;;;;;;;4.05;1.33;;;4.50;99.90;;;;;;2035122;28;20234;-67
2023/12/22 02:43:41;;;;;;;4.10;1.08;;;4.40;99.90;;;;;;2037371;29;20321;-68
2023/12/22 02:44:42;;;;;;;5.90;1.20;;;4.40;99.90;;;;;;2036473;29;20224;-68
2023/12/22 02:45:43;;;;;;;3.43;1.43;;;4.40;99.90;;;;;;2041990;28;20318;-67
2023/12/22 02:46:44;;;;;;;3.33;1.20;;;4.30;99.90;;;;;;2043850;28;20231;-68
2023/12/22 02:47:45;;;;;;;1.45;1.20;;;4.30;99.90;;;;;;2044391;28;20330;-68
2023/12/22 02:48:46;;;;;;;4.97;2.10;;;4.30;99.90;;;;;;2046244;28;20228;-68
2023/12/22 02:49:47;;;;;;;2.00;1.00;;;4.30;99.90;;;;;;2043058;28;20323;-69
2023/12/22 02:50:48;;;;;;;4.23;1.53;;;4.20;99.90;;;;;;2032781;29;20289;-68
2023/12/22 02:51:48;;;;;;;18.67;1.70;;;4.30;99.90;;;;;;2045079;28;20242;-68
2023/12/22 02:52:49;;;;;;;5.53;1.77;;;4.20;99.90;;;;;;2045945;28;20231;-67
2023/12/22 02:53:50;;;;;;;2.17;1.00;;;4.10;99.90;;;;;;2060870;28;20239;-68
2023/12/22 02:54:50;;;;;;;2.13;0.97;;;4.10;99.90;;;;;;2045054;28;20227;-68
2023/12/22 02:55:51;;;;;;;1.80;1.10;;;4.10;99.90;;;;;;2043536;28;20811;-67
2023/12/22 02:56:52;;;;;;;4.00;1.10;;;4.10;99.90;;;;;;2061108;28;20259;-68
2023/12/22 02:57:52;;;;;;;7.17;1.37;;;4.00;99.90;;;;;;2052900;28;20263;-68
2023/12/22 02:58:53;;;;;;;2.77;1.57;;;4.10;99.90;;;;;;2037409;28;20262;-68
2023/12/22 02:59:54;;;;;;;2.87;1.33;;;4.10;99.90;;;;;;2046657;28;20232;-68
2023/12/22 03:00:55;;;;;;;5.13;1.65;;;4.10;99.90;;;;;;2043302;28;20236;-68
2023/12/22 03:01:56;;;;;;;2.17;1.17;;;4.20;99.90;;;;;;2044863;28;20243;-68
2023/12/22 03:02:57;;;;;;;3.53;1.20;;;4.20;99.90;;;;;;2060483;28;20231;-68
2023/12/22 03:03:57;;;;;;;7.80;1.40;;;4.20;99.90;;;;;;2041277;28;20236;-67
2023/12/22 03:04:58;;;;;;;4.23;1.30;;;4.20;99.90;;;;;;2041775;28;20234;-68
2023/12/22 03:05:59;;;;;;;5.47;1.60;;;4.20;99.90;;;;;;2044300;28;20232;-68
2023/12/22 03:07:00;;;;;;;3.08;1.30;;;4.20;99.90;;;;;;2043640;28;20254;-67
2023/12/22 03:08:01;;;;;;;3.70;1.30;;;4.20;99.90;;;;;;2044385;28;20216;-67
2023/12/22 03:09:02;;;;;;;4.05;1.85;;;4.30;99.90;;;;;;2050851;28;20303;-68
2023/12/22 03:10:03;;;;;;;6.25;2.25;;;4.30;99.90;;;;;;2042608;28;20234;-68
2023/12/22 03:11:04;;;;;;;6.43;1.50;;;4.30;99.90;;;;;;2042892;28;20201;-69
2023/12/22 03:12:06;;;;;;;7.30;2.20;;;4.30;99.90;;;;;;2044127;28;20193;-68
2023/12/22 03:13:07;;;;;;;2.53;1.25;;;4.30;99.90;;;;;;2045672;28;20242;-68
2023/12/22 03:14:10;;;;;;;4.13;1.52;;;4.30;99.90;;;;;;2045651;28;20192;-67
2023/12/22 03:15:10;;;;;;;6.90;1.65;;;4.40;99.90;;;;;;2043417;28;20278;-68
2023/12/22 03:16:11;;;;;;;4.33;1.33;;;4.40;99.90;;;;;;2049802;28;20191;-68
2023/12/22 03:17:12;;;;;;;4.17;2.00;;;4.40;99.90;;;;;;2055052;28;20672;-67
2023/12/22 03:18:13;;;;;;;3.53;1.45;;;4.40;99.90;;;;;;2056721;28;20291;-68
2023/12/22 03:19:14;;;;;;;4.17;1.73;;;4.40;99.90;;;;;;2045391;28;20199;-68
2023/12/22 03:20:14;;;;;;;4.90;1.80;;;4.40;99.90;;;;;;2041861;28;20218;-68
2023/12/22 03:21:19;;;;;;;2.63;1.20;;;4.40;99.90;;;;;;2045280;28;20192;-68
2023/12/22 03:22:20;;;;;;;4.47;1.70;;;4.40;99.90;;;;;;2042367;28;20214;-68
2023/12/22 03:23:21;;;;;;;3.30;1.48;;;4.40;99.90;;;;;;2044137;28;20184;-68
2023/12/22 03:24:25;;;;;;;7.23;1.93;;;4.40;99.90;;;;;;2060324;28;20231;-70
2023/12/22 03:25:26;;;;;;;5.25;1.83;;;4.40;99.90;;;;;;2038329;28;20225;-67
2023/12/22 03:26:28;;;;;;;4.23;1.70;;;4.50;99.90;;;;;;2046268;28;20296;-68
2023/12/22 03:27:28;;;;;;;5.80;2.00;;;4.40;99.90;;;;;;2043051;28;20231;-68
2023/12/22 03:28:29;;;;;;;7.40;2.47;;;4.40;99.90;;;;;;2060785;28;20259;-68
2023/12/22 03:29:30;;;;;;;2.97;1.67;;;4.40;99.90;;;;;;2059798;28;20232;-68
2023/12/22 03:30:30;;;;;;;4.57;1.40;;;4.40;99.90;;;;;;2052933;28;20232;-68
2023/12/22 03:31:31;;;;;;;6.38;1.33;;;4.40;99.90;;;;;;2054989;28;20227;-68
2023/12/22 03:32:32;;;;;;;2.63;1.80;;;4.40;99.90;;;;;;2060434;28;20310;-68
2023/12/22 03:33:33;;;;;;;6.45;1.75;;;4.30;99.90;;;;;;2044671;28;20658;-68
2023/12/22 03:34:34;;;;;;;8.97;1.77;;;4.30;99.90;;;;;;2041893;28;20237;-68
2023/12/22 03:35:35;;;;;;;5.00;1.90;;;4.30;99.90;;;;;;2042057;28;20271;-68
2023/12/22 03:36:35;;;;;;;5.03;2.10;;;4.30;99.90;;;;;;2043825;28;20251;-67
2023/12/22 03:37:36;;;;;;;4.23;1.47;;;4.30;99.90;;;;;;2042037;28;20240;-67
2023/12/22 03:38:38;;;;;;;4.80;1.70;;;4.30;99.90;;;;;;2036970;29;20275;-67
2023/12/22 03:39:39;;;;;;;4.45;1.38;;;4.30;99.90;;;;;;2045046;28;20656;-68
2023/12/22 03:40:40;;;;;;;7.80;1.80;;;4.30;99.90;;;;;;2044888;28;20227;-67
2023/12/22 03:41:41;;;;;;;3.17;1.63;;;4.30;99.90;;;;;;2045420;28;20230;-68
2023/12/22 03:42:41;;;;;;;3.00;1.60;;;4.20;99.90;;;;;;2044897;28;20238;-68
2023/12/22 03:43:42;;;;;;;7.03;1.93;;;4.20;99.90;;;;;;2045376;28;20278;-68
2023/12/22 03:44:43;;;;;;;6.77;1.57;;;4.20;99.90;;;;;;2044693;28;20673;-69
2023/12/22 03:45:43;;;;;;;8.07;2.27;;;4.20;99.90;;;;;;2044348;28;20322;-68
2023/12/22 03:46:44;;;;;;;2.93;1.70;;;4.20;99.90;;;;;;2033118;29;20338;-68
2023/12/22 03:47:45;;;;;;;6.60;1.38;;;4.20;99.90;;;;;;2040236;28;20235;-68
2023/12/22 03:48:46;;;;;;;5.55;2.28;;;4.20;99.90;;;;;;2045686;28;20232;-69
2023/12/22 03:49:47;;;;;;;5.63;1.93;;;4.20;99.90;;;;;;2045192;28;20717;-68
2023/12/22 03:50:48;;;;;;;2.57;1.40;;;4.20;99.90;;;;;;2042814;28;20311;-66
2023/12/22 03:51:48;;;;;;;3.37;1.30;;;4.20;99.90;;;;;;2041363;28;20318;-68
2023/12/22 03:52:49;;;;;;;6.87;1.47;;;4.10;99.90;;;;;;2045495;28;20637;-68
2023/12/22 03:53:50;;;;;;;3.97;1.40;;;4.10;99.90;;;;;;2041240;28;20768;-67
2023/12/22 03:54:50;;;;;;;5.23;1.63;;;4.10;99.90;;;;;;2045847;28;20326;-69
2023/12/22 03:55:51;;;;;;;6.13;1.87;;;4.10;99.90;;;;;;2043547;28;20613;-68
2023/12/22 03:56:52;;;;;;;3.87;2.07;;;4.10;99.90;;;;;;2044489;28;20267;-68
2023/12/22 03:57:52;;;;;;;7.60;1.93;;;4.20;99.90;;;;;;2044121;28;20598;-68
2023/12/22 03:58:53;;;;;;;6.80;1.63;;;4.20;99.90;;;;;;2043440;28;20246;-69
2023/12/22 03:59:54;;;;;;;7.80;1.70;;;4.20;99.90;;;;;;2044417;28;20231;-68
2023/12/22 04:00:54;;;;;;;3.83;1.57;;;4.20;99.90;;;;;;2047106;28;20307;-68
2023/12/22 04:01:57;;;;;;;7.27;1.97;;;4.20;99.90;;;;;;2043374;28;20327;-68
2023/12/22 04:02:57;;;;;;;5.57;1.70;;;4.20;99.90;;;;;;2040755;28;20234;-69
2023/12/22 04:03:58;;;;;;;6.27;1.43;;;4.20;99.90;;;;;;2044632;28;20715;-68
2023/12/22 04:04:59;;;;;;;3.53;1.40;;;4.20;99.90;;;;;;2045332;28;20239;-69
2023/12/22 04:06:03;;;;;;;5.50;1.83;;;4.20;99.90;;;;;;2076875;28;20321;-68
2023/12/22 04:07:04;;;;;;;6.82;1.70;;;4.10;99.90;;;;;;2070737;28;20234;-69
2023/12/22 04:08:06;;;;;;;2.30;1.25;;;4.20;99.90;;;;;;2042411;28;20274;-68
2023/12/22 04:09:07;;;;;;;2.33;1.10;;;4.10;99.90;;;;;;2045672;28;20187;-68
2023/12/22 04:10:08;;;;;;;4.10;1.50;;;4.10;99.90;;;;;;2044534;28;20180;-68
2023/12/22 04:11:09;;;;;;;4.65;1.50;;;4.10;99.90;;;;;;2044618;28;20180;-68
2023/12/22 04:12:10;;;;;;;4.27;1.77;;;4.10;99.90;;;;;;2041050;28;20191;-69
2023/12/22 04:13:10;;;;;;;7.73;1.57;;;4.00;99.90;;;;;;2043311;28;20242;-68
2023/12/22 04:14:11;;;;;;;2.93;1.40;;;4.00;99.90;;;;;;2041849;28;20186;-69
2023/12/22 04:15:13;;;;;;;3.43;2.03;;;4.00;99.90;;;;;;2040968;28;20253;-69
2023/12/22 04:16:13;;;;;;;5.18;1.88;;;4.00;99.90;;;;;;2044559;28;20245;-68
2023/12/22 04:17:14;;;;;;;6.10;1.80;;;4.00;99.90;;;;;;2032202;28;20213;-68
2023/12/22 04:18:15;;;;;;;4.47;1.73;;;4.00;99.90;;;;;;2029406;28;20782;-68
2023/12/22 04:19:16;;;;;;;5.20;1.60;;;4.00;99.90;;;;;;2043907;28;20199;-68
2023/12/22 04:20:16;;;;;;;4.50;1.87;;;4.00;99.90;;;;;;2044372;28;20214;-68
2023/12/22 04:21:17;;;;;;;5.37;1.80;;;4.00;99.90;;;;;;2043822;28;20294;-68
2023/12/22 04:22:18;;;;;;;3.10;1.30;;;4.00;99.90;;;;;;2043512;28;20227;-68
2023/12/22 04:23:18;;;;;;;4.57;1.37;;;4.00;99.90;;;;;;2040657;28;20627;-68
2023/12/22 04:24:19;;;;;;;8.90;2.03;;;3.90;99.90;;;;;;2035087;29;20177;-68
2023/12/22 04:25:19;;;;;;;4.20;1.47;;;3.90;99.90;;;;;;2034047;28;20647;-68
2023/12/22 04:26:21;;;;;;;3.43;1.87;;;3.90;99.90;;;;;;2042760;28;20179;-68
2023/12/22 04:27:21;;;;;;;5.78;1.40;;;3.80;99.90;;;;;;2043695;28;20196;-68
2023/12/22 04:28:22;;;;;;;5.03;1.30;;;3.80;99.90;;;;;;2045043;28;20179;-68
2023/12/22 04:29:23;;;;;;;2.75;1.60;;;3.80;99.90;;;;;;2044450;28;20370;-68
2023/12/22 04:30:26;;;;;;;4.50;1.33;;;3.90;99.90;;;;;;2042487;28;20269;-69
2023/12/22 04:31:26;;;;;;;6.65;1.35;;;3.90;99.90;;;;;;2044590;28;20315;-68
2023/12/22 04:32:27;;;;;;;7.57;1.60;;;3.90;99.90;;;;;;2042126;28;20722;-68
2023/12/22 04:33:28;;;;;;;5.20;1.20;;;3.90;99.90;;;;;;2043689;28;20266;-69
2023/12/22 04:34:28;;;;;;;3.27;1.37;;;3.90;99.90;;;;;;2041242;28;20224;-68
2023/12/22 04:35:29;;;;;;;4.07;1.27;;;3.90;99.90;;;;;;2044504;28;20227;-68
2023/12/22 04:36:30;;;;;;;2.13;1.30;;;3.90;99.90;;;;;;2043932;28;20292;-68
2023/12/22 04:37:30;;;;;;;3.00;1.17;;;3.90;99.90;;;;;;2043147;28;20647;-67
2023/12/22 04:38:31;;;;;;;5.13;1.40;;;3.90;99.90;;;;;;2044583;28;20798;-68
2023/12/22 04:39:32;;;;;;;6.50;1.90;;;3.90;99.90;;;;;;2044394;28;20223;-68
2023/12/22 04:40:32;;;;;;;5.20;1.43;;;3.90;99.90;;;;;;2042332;28;20598;-68
2023/12/22 04:41:33;;;;;;;3.47;1.80;;;3.90;99.90;;;;;;2043855;28;20234;-68
2023/12/22 04:42:34;;;;;;;4.40;1.83;;;3.90;99.90;;;;;;2042541;28;20713;-67
2023/12/22 04:43:35;;;;;;;5.27;1.80;;;3.90;99.90;;;;;;2044706;28;20236;-68
2023/12/22 04:44:35;;;;;;;3.00;1.53;;;4.00;99.90;;;;;;2043637;28;20228;-67
2023/12/22 04:45:36;;;;;;;7.87;1.83;;;4.00;99.90;;;;;;2044513;28;20316;-68
2023/12/22 04:46:37;;;;;;;6.27;2.00;;;4.00;99.90;;;;;;2044490;28;20235;-68
2023/12/22 04:47:37;;;;;;;3.97;1.30;;;4.00;99.90;;;;;;2033603;28;20339;-68
2023/12/22 04:48:38;;;;;;;3.30;1.40;;;4.10;99.90;;;;;;2035326;28;20722;-69
2023/12/22 04:49:39;;;;;;;4.70;1.97;;;4.10;99.90;;;;;;2045913;28;20336;-68
2023/12/22 04:50:40;;;;;;;4.63;1.73;;;4.00;99.90;;;;;;2044148;28;20238;-68
2023/12/22 04:51:41;;;;;;;5.95;1.52;;;4.10;99.90;;;;;;2044159;28;20250;-68
2023/12/22 04:52:42;;;;;;;7.53;1.90;;;4.00;99.90;;;;;;2036851;28;20237;-68
2023/12/22 04:53:42;;;;;;;1.53;1.23;;;4.00;99.90;;;;;;2039115;29;20235;-69
2023/12/22 04:54:43;;;;;;;3.67;1.67;;;4.00;99.90;;;;;;2037640;28;20323;-69
2023/12/22 04:55:44;;;;;;;10.52;2.78;;;4.00;99.90;;;;;;2044292;28;20618;-68
2023/12/22 04:56:45;;;;;;;9.67;1.83;;;4.10;99.90;;;;;;2044851;28;20235;-68
2023/12/22 04:57:45;;;;;;;8.67;1.97;;;4.10;99.90;;;;;;2044387;28;20685;-66
2023/12/22 04:58:46;;;;;;;6.00;1.70;;;4.10;99.90;;;;;;2044547;28;20235;-68
2023/12/22 04:59:47;;;;;;;3.73;1.53;;;4.00;99.90;;;;;;2037719;29;20299;-68
2023/12/22 05:00:47;;;;;;;8.10;1.70;;;4.00;99.90;;;;;;2047701;28;20270;-68
2023/12/22 05:01:48;;;;;;;11.27;1.80;;;4.10;99.90;;;;;;2072860;28;20262;-67
2023/12/22 05:02:49;;;;;;;4.40;1.87;;;4.10;99.90;;;;;;2066919;28;20223;-68
2023/12/22 05:03:49;;;;;;;8.30;1.67;;;4.10;99.90;;;;;;2059465;28;20236;-69
2023/12/22 05:04:50;;;;;;;9.40;1.80;;;4.10;99.90;;;;;;2043154;28;20315;-68
2023/12/22 05:05:51;;;;;;;5.50;1.70;;;4.10;99.90;;;;;;2044596;28;20240;-69
2023/12/22 05:06:51;;;;;;;5.50;1.73;;;4.10;99.90;;;;;;2034179;28;20319;-68
2023/12/22 05:07:52;;;;;;;5.27;1.70;;;4.10;99.90;;;;;;2046068;28;20357;-68
2023/12/22 05:08:53;;;;;;;4.37;1.30;;;4.10;99.90;;;;;;2045251;28;20239;-68
2023/12/22 05:09:55;;;;;;;2.42;1.33;;;4.10;99.90;;;;;;2046397;28;20228;-68
2023/12/22 05:10:56;;;;;;;2.90;1.50;;;4.20;99.90;;;;;;2045160;28;20608;-68
2023/12/22 05:11:56;;;;;;;8.10;2.37;;;4.20;99.90;;;;;;2054200;28;20223;-69
2023/12/22 05:12:57;;;;;;;3.47;1.73;;;4.10;99.90;;;;;;2044477;28;20716;-67
2023/12/22 05:13:58;;;;;;;6.80;2.50;;;4.20;99.90;;;;;;2046729;28;20235;-68
2023/12/22 05:15:00;;;;;;;6.18;1.80;;;4.20;99.90;;;;;;2046203;28;20233;-68
2023/12/22 05:16:01;;;;;;;4.07;2.00;;;4.20;99.90;;;;;;2044920;28;20320;-68
2023/12/22 05:17:01;;;;;;;3.70;1.98;;;4.20;99.90;;;;;;2044673;28;20244;-68
2023/12/22 05:18:02;;;;;;;6.27;2.10;;;4.20;99.90;;;;;;2046019;28;20314;-68
2023/12/22 05:19:03;;;;;;;10.88;4.38;;;4.20;99.90;;;;;;2040865;28;20277;-68
2023/12/22 05:20:04;;;;;;;7.83;2.33;;;4.20;99.90;;;;;;2042799;28;20223;-69
2023/12/22 05:21:05;;;;;;;5.38;2.22;;;4.20;99.90;;;;;;2044504;28;20191;-68
2023/12/22 05:22:06;;;;;;;4.77;1.90;;;4.20;99.90;;;;;;2052389;28;20686;-68
2023/12/22 05:23:07;;;;;;;10.13;3.03;;;4.20;99.90;;;;;;2057301;28;20184;-69
2023/12/22 05:24:07;;;;;;;7.87;2.33;;;4.20;99.90;;;;;;2045329;28;20650;-69
2023/12/22 05:25:09;;;;;;;4.83;2.33;;;4.20;99.90;;;;;;2043372;28;20184;-69